sensor_id;sensor_type;location;lat;lon;timestamp;P1;durP1;ratioP1;P2;durP2;ratioP2
70365;SDS011;57787;48.216;12.396;2022-12-07T00:01:34;15.02;;;8.73;;
70365;SDS011;57787;48.216;12.396;2022-12-07T00:04:03;17.33;;;10.25;;
70365;SDS011;57787;48.216;12.396;2022-12-07T00:09:03;17.05;;;9.88;;
70365;SDS011;57787;48.216;12.396;2022-12-07T00:11:31;15.90;;;9.35;;
70365;SDS011;57787;48.216;12.396;2022-12-07T00:13:59;15.48;;;9.27;;
70365;SDS011;57787;48.216;12.396;2022-12-07T00:16:29;15.18;;;9.23;;
70365;SDS011;57787;48.216;12.396;2022-12-07T00:18:57;13.57;;;8.27;;
70365;SDS011;57787;48.216;12.396;2022-12-07T00:21:29;16.38;;;8.98;;
70365;SDS011;57787;48.216;12.396;2022-12-07T00:23:58;15.27;;;9.07;;
70365;SDS011;57787;48.216;12.396;2022-12-07T00:26:29;16.63;;;8.80;;
70365;SDS011;57787;48.216;12.396;2022-12-07T00:29:03;14.60;;;8.45;;
70365;SDS011;57787;48.216;12.396;2022-12-07T00:31:32;19.70;;;9.48;;
70365;SDS011;57787;48.216;12.396;2022-12-07T00:34:02;16.73;;;9.15;;
70365;SDS011;57787;48.216;12.396;2022-12-07T00:36:28;16.80;;;9.20;;
70365;SDS011;57787;48.216;12.396;2022-12-07T00:38:57;19.00;;;8.80;;
70365;SDS011;57787;48.216;12.396;2022-12-07T00:41:25;14.05;;;8.20;;
70365;SDS011;57787;48.216;12.396;2022-12-07T00:43:53;18.60;;;8.77;;
70365;SDS011;57787;48.216;12.396;2022-12-07T00:46:22;15.88;;;8.75;;
70365;SDS011;57787;48.216;12.396;2022-12-07T00:48:50;14.18;;;7.72;;
70365;SDS011;57787;48.216;12.396;2022-12-07T00:53:46;15.48;;;8.70;;
70365;SDS011;57787;48.216;12.396;2022-12-07T00:56:26;15.70;;;8.85;;
70365;SDS011;57787;48.216;12.396;2022-12-07T00:58:55;15.15;;;8.23;;
70365;SDS011;57787;48.216;12.396;2022-12-07T01:01:23;13.43;;;8.05;;
70365;SDS011;57787;48.216;12.396;2022-12-07T01:03:52;13.60;;;8.43;;
70365;SDS011;57787;48.216;12.396;2022-12-07T01:06:19;15.38;;;8.75;;
70365;SDS011;57787;48.216;12.396;2022-12-07T01:08:48;14.95;;;8.50;;
70365;SDS011;57787;48.216;12.396;2022-12-07T01:11:21;14.40;;;8.63;;
70365;SDS011;57787;48.216;12.396;2022-12-07T01:13:50;16.05;;;8.00;;
70365;SDS011;57787;48.216;12.396;2022-12-07T01:16:18;12.93;;;7.72;;
70365;SDS011;57787;48.216;12.396;2022-12-07T01:18:46;14.93;;;8.63;;
70365;SDS011;57787;48.216;12.396;2022-12-07T01:21:16;16.23;;;8.27;;
70365;SDS011;57787;48.216;12.396;2022-12-07T01:23:48;17.83;;;8.52;;
70365;SDS011;57787;48.216;12.396;2022-12-07T01:26:17;18.15;;;8.40;;
70365;SDS011;57787;48.216;12.396;2022-12-07T01:28:45;14.93;;;8.35;;
70365;SDS011;57787;48.216;12.396;2022-12-07T01:31:13;14.05;;;8.18;;
70365;SDS011;57787;48.216;12.396;2022-12-07T01:33:43;14.38;;;8.38;;
70365;SDS011;57787;48.216;12.396;2022-12-07T01:38:43;14.63;;;8.20;;
70365;SDS011;57787;48.216;12.396;2022-12-07T01:41:11;12.80;;;7.60;;
70365;SDS011;57787;48.216;12.396;2022-12-07T01:46:38;12.93;;;8.05;;
70365;SDS011;57787;48.216;12.396;2022-12-07T01:49:07;14.40;;;7.60;;
70365;SDS011;57787;48.216;12.396;2022-12-07T01:51:38;13.68;;;8.43;;
70365;SDS011;57787;48.216;12.396;2022-12-07T01:54:10;14.80;;;8.15;;
70365;SDS011;57787;48.216;12.396;2022-12-07T01:56:39;16.67;;;8.88;;
70365;SDS011;57787;48.216;12.396;2022-12-07T01:59:10;15.52;;;8.68;;
70365;SDS011;57787;48.216;12.396;2022-12-07T02:01:38;13.10;;;7.97;;
70365;SDS011;57787;48.216;12.396;2022-12-07T02:04:05;15.52;;;8.43;;
70365;SDS011;57787;48.216;12.396;2022-12-07T02:06:32;14.43;;;7.93;;
70365;SDS011;57787;48.216;12.396;2022-12-07T02:09:01;14.82;;;8.07;;
70365;SDS011;57787;48.216;12.396;2022-12-07T02:11:31;15.38;;;8.75;;
70365;SDS011;57787;48.216;12.396;2022-12-07T02:13:57;16.37;;;8.83;;
70365;SDS011;57787;48.216;12.396;2022-12-07T02:16:39;18.17;;;8.63;;
70365;SDS011;57787;48.216;12.396;2022-12-07T02:30:45;16.88;;;8.73;;
70365;SDS011;57787;48.216;12.396;2022-12-07T02:36:22;17.20;;;8.53;;
70365;SDS011;57787;48.216;12.396;2022-12-07T02:38:58;13.15;;;7.85;;
70365;SDS011;57787;48.216;12.396;2022-12-07T02:41:31;14.68;;;8.80;;
70365;SDS011;57787;48.216;12.396;2022-12-07T02:44:05;14.27;;;8.43;;
70365;SDS011;57787;48.216;12.396;2022-12-07T02:46:37;15.55;;;8.93;;
70365;SDS011;57787;48.216;12.396;2022-12-07T02:49:11;16.08;;;9.63;;
70365;SDS011;57787;48.216;12.396;2022-12-07T02:51:39;15.07;;;9.13;;
70365;SDS011;57787;48.216;12.396;2022-12-07T02:54:10;13.43;;;7.50;;
70365;SDS011;57787;48.216;12.396;2022-12-07T02:56:44;16.95;;;9.57;;
70365;SDS011;57787;48.216;12.396;2022-12-07T03:07:42;12.75;;;7.70;;
70365;SDS011;57787;48.216;12.396;2022-12-07T03:16:03;18.13;;;9.48;;
70365;SDS011;57787;48.216;12.396;2022-12-07T03:18:39;16.85;;;9.73;;
70365;SDS011;57787;48.216;12.396;2022-12-07T03:21:14;15.50;;;8.43;;
70365;SDS011;57787;48.216;12.396;2022-12-07T03:23:45;18.15;;;9.52;;
70365;SDS011;57787;48.216;12.396;2022-12-07T03:26:15;15.68;;;8.60;;
70365;SDS011;57787;48.216;12.396;2022-12-07T03:28:54;14.95;;;9.05;;
70365;SDS011;57787;48.216;12.396;2022-12-07T03:31:31;16.10;;;8.85;;
70365;SDS011;57787;48.216;12.396;2022-12-07T03:34:07;15.25;;;9.05;;
70365;SDS011;57787;48.216;12.396;2022-12-07T03:36:44;15.52;;;8.50;;
70365;SDS011;57787;48.216;12.396;2022-12-07T03:42:22;18.73;;;8.98;;
70365;SDS011;57787;48.216;12.396;2022-12-07T03:44:50;17.27;;;9.65;;
70365;SDS011;57787;48.216;12.396;2022-12-07T03:47:27;16.08;;;8.23;;
70365;SDS011;57787;48.216;12.396;2022-12-07T03:50:09;18.98;;;9.40;;
70365;SDS011;57787;48.216;12.396;2022-12-07T03:52:52;16.10;;;9.38;;
70365;SDS011;57787;48.216;12.396;2022-12-07T03:55:33;14.43;;;8.23;;
70365;SDS011;57787;48.216;12.396;2022-12-07T03:58:04;14.73;;;8.57;;
70365;SDS011;57787;48.216;12.396;2022-12-07T04:00:35;13.40;;;8.18;;
70365;SDS011;57787;48.216;12.396;2022-12-07T04:03:09;17.63;;;9.43;;
70365;SDS011;57787;48.216;12.396;2022-12-07T04:08:04;16.40;;;9.77;;
70365;SDS011;57787;48.216;12.396;2022-12-07T04:10:32;15.60;;;8.48;;
70365;SDS011;57787;48.216;12.396;2022-12-07T04:12:59;17.30;;;9.82;;
70365;SDS011;57787;48.216;12.396;2022-12-07T04:15:25;14.93;;;8.80;;
70365;SDS011;57787;48.216;12.396;2022-12-07T04:17:52;13.90;;;8.10;;
70365;SDS011;57787;48.216;12.396;2022-12-07T04:20:20;15.98;;;8.88;;
70365;SDS011;57787;48.216;12.396;2022-12-07T04:22:47;15.40;;;8.50;;
70365;SDS011;57787;48.216;12.396;2022-12-07T04:25:15;16.30;;;8.80;;
70365;SDS011;57787;48.216;12.396;2022-12-07T04:27:41;16.50;;;9.00;;
70365;SDS011;57787;48.216;12.396;2022-12-07T04:30:11;15.57;;;8.97;;
70365;SDS011;57787;48.216;12.396;2022-12-07T04:32:38;19.92;;;10.40;;
70365;SDS011;57787;48.216;12.396;2022-12-07T04:35:06;18.98;;;10.35;;
70365;SDS011;57787;48.216;12.396;2022-12-07T04:37:34;17.52;;;10.07;;
70365;SDS011;57787;48.216;12.396;2022-12-07T04:40:01;14.77;;;8.10;;
70365;SDS011;57787;48.216;12.396;2022-12-07T04:44:58;15.00;;;8.93;;
70365;SDS011;57787;48.216;12.396;2022-12-07T04:47:25;15.30;;;8.60;;
70365;SDS011;57787;48.216;12.396;2022-12-07T04:49:51;15.10;;;9.07;;
70365;SDS011;57787;48.216;12.396;2022-12-07T04:52:18;16.03;;;8.10;;
70365;SDS011;57787;48.216;12.396;2022-12-07T04:54:46;17.52;;;10.23;;
70365;SDS011;57787;48.216;12.396;2022-12-07T04:57:13;19.93;;;10.17;;
70365;SDS011;57787;48.216;12.396;2022-12-07T04:59:40;18.80;;;11.02;;
70365;SDS011;57787;48.216;12.396;2022-12-07T05:02:12;22.23;;;11.63;;
70365;SDS011;57787;48.216;12.396;2022-12-07T05:04:39;22.13;;;12.25;;
70365;SDS011;57787;48.216;12.396;2022-12-07T05:07:06;22.23;;;11.57;;
70365;SDS011;57787;48.216;12.396;2022-12-07T05:09:35;19.65;;;10.57;;
70365;SDS011;57787;48.216;12.396;2022-12-07T05:12:05;18.75;;;11.15;;
70365;SDS011;57787;48.216;12.396;2022-12-07T05:14:32;20.15;;;11.40;;
70365;SDS011;57787;48.216;12.396;2022-12-07T05:16:59;18.92;;;10.50;;
70365;SDS011;57787;48.216;12.396;2022-12-07T05:19:28;18.27;;;9.63;;
70365;SDS011;57787;48.216;12.396;2022-12-07T05:21:57;18.70;;;10.80;;
70365;SDS011;57787;48.216;12.396;2022-12-07T05:24:24;20.80;;;10.98;;
70365;SDS011;57787;48.216;12.396;2022-12-07T05:26:50;18.85;;;10.27;;
70365;SDS011;57787;48.216;12.396;2022-12-07T05:29:17;14.43;;;8.32;;
70365;SDS011;57787;48.216;12.396;2022-12-07T05:31:45;16.75;;;9.98;;
70365;SDS011;57787;48.216;12.396;2022-12-07T05:34:13;18.83;;;9.82;;
70365;SDS011;57787;48.216;12.396;2022-12-07T05:36:41;18.27;;;9.63;;
70365;SDS011;57787;48.216;12.396;2022-12-07T05:39:08;19.15;;;12.15;;
70365;SDS011;57787;48.216;12.396;2022-12-07T05:41:35;25.87;;;16.40;;
70365;SDS011;57787;48.216;12.396;2022-12-07T05:44:23;20.73;;;12.40;;
70365;SDS011;57787;48.216;12.396;2022-12-07T05:46:49;21.23;;;11.77;;
70365;SDS011;57787;48.216;12.396;2022-12-07T05:49:16;19.87;;;11.97;;
70365;SDS011;57787;48.216;12.396;2022-12-07T05:51:43;17.90;;;10.35;;
70365;SDS011;57787;48.216;12.396;2022-12-07T05:54:12;16.67;;;10.05;;
70365;SDS011;57787;48.216;12.396;2022-12-07T05:56:41;17.08;;;10.35;;
70365;SDS011;57787;48.216;12.396;2022-12-07T05:59:08;21.30;;;10.70;;
70365;SDS011;57787;48.216;12.396;2022-12-07T06:01:58;17.90;;;9.68;;
70365;SDS011;57787;48.216;12.396;2022-12-07T06:04:30;17.75;;;10.32;;
70365;SDS011;57787;48.216;12.396;2022-12-07T06:07:01;16.80;;;9.32;;
70365;SDS011;57787;48.216;12.396;2022-12-07T06:12:09;19.73;;;10.60;;
70365;SDS011;57787;48.216;12.396;2022-12-07T06:15:01;17.55;;;9.98;;
70365;SDS011;57787;48.216;12.396;2022-12-07T06:17:30;19.52;;;11.13;;
70365;SDS011;57787;48.216;12.396;2022-12-07T06:19:56;19.63;;;10.30;;
70365;SDS011;57787;48.216;12.396;2022-12-07T06:22:25;20.90;;;12.10;;
70365;SDS011;57787;48.216;12.396;2022-12-07T06:24:52;19.50;;;10.47;;
70365;SDS011;57787;48.216;12.396;2022-12-07T06:27:19;20.92;;;11.40;;
70365;SDS011;57787;48.216;12.396;2022-12-07T06:29:46;19.88;;;11.38;;
70365;SDS011;57787;48.216;12.396;2022-12-07T06:32:13;20.88;;;10.25;;
70365;SDS011;57787;48.216;12.396;2022-12-07T06:34:47;23.00;;;11.48;;
70365;SDS011;57787;48.216;12.396;2022-12-07T06:37:18;22.27;;;12.23;;
70365;SDS011;57787;48.216;12.396;2022-12-07T06:39:45;20.67;;;11.27;;
70365;SDS011;57787;48.216;12.396;2022-12-07T06:42:18;22.98;;;11.45;;
70365;SDS011;57787;48.216;12.396;2022-12-07T06:44:45;24.13;;;11.40;;
70365;SDS011;57787;48.216;12.396;2022-12-07T06:47:16;19.60;;;11.38;;
70365;SDS011;57787;48.216;12.396;2022-12-07T06:50:03;21.97;;;11.60;;
70365;SDS011;57787;48.216;12.396;2022-12-07T06:52:30;19.52;;;10.70;;
70365;SDS011;57787;48.216;12.396;2022-12-07T06:55:00;21.23;;;10.73;;
70365;SDS011;57787;48.216;12.396;2022-12-07T06:57:32;19.85;;;11.05;;
70365;SDS011;57787;48.216;12.396;2022-12-07T06:59:58;20.20;;;11.27;;
70365;SDS011;57787;48.216;12.396;2022-12-07T07:02:26;21.65;;;11.18;;
70365;SDS011;57787;48.216;12.396;2022-12-07T07:04:54;27.55;;;13.50;;
70365;SDS011;57787;48.216;12.396;2022-12-07T07:07:23;24.00;;;11.18;;
70365;SDS011;57787;48.216;12.396;2022-12-07T07:09:50;22.97;;;10.57;;
70365;SDS011;57787;48.216;12.396;2022-12-07T07:12:18;21.20;;;11.00;;
70365;SDS011;57787;48.216;12.396;2022-12-07T07:14:44;22.88;;;11.38;;
70365;SDS011;57787;48.216;12.396;2022-12-07T07:17:14;24.58;;;11.65;;
70365;SDS011;57787;48.216;12.396;2022-12-07T07:19:42;28.10;;;14.30;;
70365;SDS011;57787;48.216;12.396;2022-12-07T07:22:09;29.45;;;14.77;;
70365;SDS011;57787;48.216;12.396;2022-12-07T07:24:36;27.25;;;13.75;;
70365;SDS011;57787;48.216;12.396;2022-12-07T07:27:03;26.58;;;14.15;;
70365;SDS011;57787;48.216;12.396;2022-12-07T07:29:30;24.92;;;11.98;;
70365;SDS011;57787;48.216;12.396;2022-12-07T07:31:56;30.23;;;13.43;;
70365;SDS011;57787;48.216;12.396;2022-12-07T07:34:31;27.52;;;13.10;;
70365;SDS011;57787;48.216;12.396;2022-12-07T07:36:58;29.15;;;13.30;;
70365;SDS011;57787;48.216;12.396;2022-12-07T07:39:26;24.48;;;12.52;;
70365;SDS011;57787;48.216;12.396;2022-12-07T07:41:53;26.45;;;13.10;;
70365;SDS011;57787;48.216;12.396;2022-12-07T07:44:20;25.70;;;13.43;;
70365;SDS011;57787;48.216;12.396;2022-12-07T07:46:47;26.63;;;13.85;;
70365;SDS011;57787;48.216;12.396;2022-12-07T07:49:14;43.90;;;20.63;;
70365;SDS011;57787;48.216;12.396;2022-12-07T07:51:41;29.97;;;14.20;;
70365;SDS011;57787;48.216;12.396;2022-12-07T07:54:08;27.60;;;14.87;;
70365;SDS011;57787;48.216;12.396;2022-12-07T07:56:42;25.87;;;14.03;;
70365;SDS011;57787;48.216;12.396;2022-12-07T07:59:08;28.45;;;15.20;;
70365;SDS011;57787;48.216;12.396;2022-12-07T08:01:35;32.37;;;18.23;;
70365;SDS011;57787;48.216;12.396;2022-12-07T08:04:02;27.30;;;15.50;;
70365;SDS011;57787;48.216;12.396;2022-12-07T08:06:32;27.30;;;14.00;;
70365;SDS011;57787;48.216;12.396;2022-12-07T08:08:59;27.13;;;13.32;;
70365;SDS011;57787;48.216;12.396;2022-12-07T08:11:26;23.60;;;12.70;;
70365;SDS011;57787;48.216;12.396;2022-12-07T08:13:52;22.23;;;12.67;;
70365;SDS011;57787;48.216;12.396;2022-12-07T08:16:20;22.67;;;12.68;;
70365;SDS011;57787;48.216;12.396;2022-12-07T08:18:47;21.70;;;11.90;;
70365;SDS011;57787;48.216;12.396;2022-12-07T08:21:14;23.87;;;11.53;;
70365;SDS011;57787;48.216;12.396;2022-12-07T08:23:41;18.95;;;10.85;;
70365;SDS011;57787;48.216;12.396;2022-12-07T08:26:09;23.92;;;13.38;;
70365;SDS011;57787;48.216;12.396;2022-12-07T08:28:39;21.98;;;12.48;;
70365;SDS011;57787;48.216;12.396;2022-12-07T08:31:07;22.05;;;12.25;;
70365;SDS011;57787;48.216;12.396;2022-12-07T08:33:42;26.10;;;13.55;;
70365;SDS011;57787;48.216;12.396;2022-12-07T08:36:11;27.10;;;14.60;;
70365;SDS011;57787;48.216;12.396;2022-12-07T08:38:39;22.42;;;12.77;;
70365;SDS011;57787;48.216;12.396;2022-12-07T08:41:16;23.57;;;12.83;;
70365;SDS011;57787;48.216;12.396;2022-12-07T08:43:43;26.45;;;14.95;;
70365;SDS011;57787;48.216;12.396;2022-12-07T08:46:13;21.83;;;12.20;;
70365;SDS011;57787;48.216;12.396;2022-12-07T08:49:14;24.58;;;12.50;;
70365;SDS011;57787;48.216;12.396;2022-12-07T08:51:44;22.45;;;12.60;;
70365;SDS011;57787;48.216;12.396;2022-12-07T08:54:13;23.52;;;13.57;;
70365;SDS011;57787;48.216;12.396;2022-12-07T08:56:43;20.80;;;11.57;;
70365;SDS011;57787;48.216;12.396;2022-12-07T08:59:14;18.63;;;11.18;;
70365;SDS011;57787;48.216;12.396;2022-12-07T09:01:44;19.65;;;10.65;;
70365;SDS011;57787;48.216;12.396;2022-12-07T09:04:12;19.67;;;10.48;;
70365;SDS011;57787;48.216;12.396;2022-12-07T09:06:40;17.65;;;10.48;;
70365;SDS011;57787;48.216;12.396;2022-12-07T09:09:08;16.95;;;9.65;;
70365;SDS011;57787;48.216;12.396;2022-12-07T09:11:36;17.13;;;9.68;;
70365;SDS011;57787;48.216;12.396;2022-12-07T09:14:03;16.07;;;9.27;;
70365;SDS011;57787;48.216;12.396;2022-12-07T09:16:29;17.97;;;9.97;;
70365;SDS011;57787;48.216;12.396;2022-12-07T09:18:56;15.90;;;9.18;;
70365;SDS011;57787;48.216;12.396;2022-12-07T09:21:23;16.27;;;8.87;;
70365;SDS011;57787;48.216;12.396;2022-12-07T09:23:52;17.65;;;10.45;;
70365;SDS011;57787;48.216;12.396;2022-12-07T09:26:19;23.35;;;12.25;;
70365;SDS011;57787;48.216;12.396;2022-12-07T09:28:46;17.53;;;10.30;;
70365;SDS011;57787;48.216;12.396;2022-12-07T09:31:13;15.57;;;9.70;;
70365;SDS011;57787;48.216;12.396;2022-12-07T09:33:57;16.83;;;9.68;;
70365;SDS011;57787;48.216;12.396;2022-12-07T09:36:25;16.50;;;9.48;;
70365;SDS011;57787;48.216;12.396;2022-12-07T09:38:53;17.35;;;9.52;;
70365;SDS011;57787;48.216;12.396;2022-12-07T09:41:21;15.65;;;9.80;;
70365;SDS011;57787;48.216;12.396;2022-12-07T09:43:58;17.00;;;8.88;;
70365;SDS011;57787;48.216;12.396;2022-12-07T09:46:38;13.55;;;8.90;;
70365;SDS011;57787;48.216;12.396;2022-12-07T09:49:28;15.13;;;9.27;;
70365;SDS011;57787;48.216;12.396;2022-12-07T09:52:40;14.27;;;8.65;;
70365;SDS011;57787;48.216;12.396;2022-12-07T09:54:53;16.35;;;9.07;;
70365;SDS011;57787;48.216;12.396;2022-12-07T09:57:32;16.73;;;10.13;;
70365;SDS011;57787;48.216;12.396;2022-12-07T10:00:03;15.82;;;9.90;;
70365;SDS011;57787;48.216;12.396;2022-12-07T10:05:13;14.80;;;7.97;;
70365;SDS011;57787;48.216;12.396;2022-12-07T10:07:51;13.20;;;8.48;;
70365;SDS011;57787;48.216;12.396;2022-12-07T10:10:25;15.77;;;8.48;;
70365;SDS011;57787;48.216;12.396;2022-12-07T10:13:00;18.17;;;9.68;;
70365;SDS011;57787;48.216;12.396;2022-12-07T10:18:34;13.68;;;7.53;;
70365;SDS011;57787;48.216;12.396;2022-12-07T10:21:13;15.70;;;8.52;;
70365;SDS011;57787;48.216;12.396;2022-12-07T10:24:04;13.52;;;8.45;;
70365;SDS011;57787;48.216;12.396;2022-12-07T10:26:36;14.50;;;8.65;;
70365;SDS011;57787;48.216;12.396;2022-12-07T10:29:28;15.32;;;7.93;;
70365;SDS011;57787;48.216;12.396;2022-12-07T10:37:56;14.05;;;8.50;;
70365;SDS011;57787;48.216;12.396;2022-12-07T10:40:26;13.90;;;8.55;;
70365;SDS011;57787;48.216;12.396;2022-12-07T10:43:03;12.98;;;7.93;;
70365;SDS011;57787;48.216;12.396;2022-12-07T10:51:56;12.77;;;7.60;;
70365;SDS011;57787;48.216;12.396;2022-12-07T11:00:32;12.02;;;7.30;;
70365;SDS011;57787;48.216;12.396;2022-12-07T11:11:36;9.95;;;6.38;;
70365;SDS011;57787;48.216;12.396;2022-12-07T11:15:15;12.70;;;7.78;;
70365;SDS011;57787;48.216;12.396;2022-12-07T11:17:11;12.73;;;7.60;;
70365;SDS011;57787;48.216;12.396;2022-12-07T11:19:55;17.25;;;8.43;;
70365;SDS011;57787;48.216;12.396;2022-12-07T11:33:40;13.15;;;6.70;;
70365;SDS011;57787;48.216;12.396;2022-12-07T11:36:34;11.38;;;6.47;;
70365;SDS011;57787;48.216;12.396;2022-12-07T11:39:20;10.10;;;6.60;;
70365;SDS011;57787;48.216;12.396;2022-12-07T11:41:59;9.63;;;5.85;;
70365;SDS011;57787;48.216;12.396;2022-12-07T11:44:35;10.25;;;5.75;;
70365;SDS011;57787;48.216;12.396;2022-12-07T11:47:25;7.55;;;5.00;;
70365;SDS011;57787;48.216;12.396;2022-12-07T11:58:15;7.75;;;4.70;;
70365;SDS011;57787;48.216;12.396;2022-12-07T12:00:48;7.50;;;4.93;;
70365;SDS011;57787;48.216;12.396;2022-12-07T12:03:24;8.77;;;5.10;;
70365;SDS011;57787;48.216;12.396;2022-12-07T12:05:58;6.90;;;4.45;;
70365;SDS011;57787;48.216;12.396;2022-12-07T12:08:27;9.90;;;6.15;;
70365;SDS011;57787;48.216;12.396;2022-12-07T12:11:22;7.82;;;4.78;;
70365;SDS011;57787;48.216;12.396;2022-12-07T12:23:15;9.15;;;4.88;;
70365;SDS011;57787;48.216;12.396;2022-12-07T12:26:02;10.38;;;5.30;;
70365;SDS011;57787;48.216;12.396;2022-12-07T12:28:38;8.25;;;4.85;;
70365;SDS011;57787;48.216;12.396;2022-12-07T12:31:16;8.05;;;5.28;;
70365;SDS011;57787;48.216;12.396;2022-12-07T12:33:56;8.02;;;5.30;;
70365;SDS011;57787;48.216;12.396;2022-12-07T12:47:01;7.38;;;4.65;;
70365;SDS011;57787;48.216;12.396;2022-12-07T12:52:56;8.82;;;4.97;;
70365;SDS011;57787;48.216;12.396;2022-12-07T12:55:48;10.13;;;5.18;;
70365;SDS011;57787;48.216;12.396;2022-12-07T13:31:47;43.63;;;15.32;;
70365;SDS011;57787;48.216;12.396;2022-12-07T13:34:35;59.33;;;21.52;;
70365;SDS011;57787;48.216;12.396;2022-12-07T13:40:12;16.40;;;8.05;;
70365;SDS011;57787;48.216;12.396;2022-12-07T13:42:47;44.97;;;18.25;;
70365;SDS011;57787;48.216;12.396;2022-12-07T13:45:32;51.43;;;19.37;;
70365;SDS011;57787;48.216;12.396;2022-12-07T13:48:18;27.70;;;11.80;;
70365;SDS011;57787;48.216;12.396;2022-12-07T13:50:53;22.35;;;10.85;;
70365;SDS011;57787;48.216;12.396;2022-12-07T13:53:21;26.38;;;11.73;;
70365;SDS011;57787;48.216;12.396;2022-12-07T13:58:20;14.38;;;7.15;;
70365;SDS011;57787;48.216;12.396;2022-12-07T14:00:48;12.93;;;7.00;;
70365;SDS011;57787;48.216;12.396;2022-12-07T14:05:48;8.48;;;5.32;;
70365;SDS011;57787;48.216;12.396;2022-12-07T14:08:31;9.65;;;5.65;;
70365;SDS011;57787;48.216;12.396;2022-12-07T14:10:58;11.23;;;5.37;;
70365;SDS011;57787;48.216;12.396;2022-12-07T14:13:33;11.90;;;6.22;;
70365;SDS011;57787;48.216;12.396;2022-12-07T14:16:01;9.65;;;5.90;;
70365;SDS011;57787;48.216;12.396;2022-12-07T14:18:34;10.63;;;5.97;;
70365;SDS011;57787;48.216;12.396;2022-12-07T14:21:24;10.80;;;5.95;;
70365;SDS011;57787;48.216;12.396;2022-12-07T14:24:07;10.77;;;5.50;;
70365;SDS011;57787;48.216;12.396;2022-12-07T14:26:37;10.35;;;5.35;;
70365;SDS011;57787;48.216;12.396;2022-12-07T14:29:20;10.82;;;5.38;;
70365;SDS011;57787;48.216;12.396;2022-12-07T14:31:56;10.90;;;5.55;;
70365;SDS011;57787;48.216;12.396;2022-12-07T14:34:25;10.00;;;6.20;;
70365;SDS011;57787;48.216;12.396;2022-12-07T14:36:52;11.57;;;6.00;;
70365;SDS011;57787;48.216;12.396;2022-12-07T14:39:19;13.80;;;7.63;;
70365;SDS011;57787;48.216;12.396;2022-12-07T14:41:46;37.70;;;19.30;;
70365;SDS011;57787;48.216;12.396;2022-12-07T14:44:19;13.93;;;7.72;;
70365;SDS011;57787;48.216;12.396;2022-12-07T14:46:59;15.07;;;8.10;;
70365;SDS011;57787;48.216;12.396;2022-12-07T14:49:50;14.52;;;6.90;;
70365;SDS011;57787;48.216;12.396;2022-12-07T14:52:19;11.38;;;6.68;;
70365;SDS011;57787;48.216;12.396;2022-12-07T14:55:13;9.57;;;5.65;;
70365;SDS011;57787;48.216;12.396;2022-12-07T14:57:53;10.07;;;4.95;;
70365;SDS011;57787;48.216;12.396;2022-12-07T15:00:26;10.63;;;5.40;;
70365;SDS011;57787;48.216;12.396;2022-12-07T15:03:00;9.57;;;5.40;;
70365;SDS011;57787;48.216;12.396;2022-12-07T15:05:27;8.05;;;4.65;;
70365;SDS011;57787;48.216;12.396;2022-12-07T15:07:54;16.67;;;6.15;;
70365;SDS011;57787;48.216;12.396;2022-12-07T15:10:22;15.77;;;5.90;;
70365;SDS011;57787;48.216;12.396;2022-12-07T15:12:57;11.55;;;6.05;;
70365;SDS011;57787;48.216;12.396;2022-12-07T15:15:47;10.73;;;5.88;;
70365;SDS011;57787;48.216;12.396;2022-12-07T15:18:15;13.00;;;6.43;;
70365;SDS011;57787;48.216;12.396;2022-12-07T15:20:43;17.88;;;7.85;;
70365;SDS011;57787;48.216;12.396;2022-12-07T15:25:45;13.80;;;7.20;;
70365;SDS011;57787;48.216;12.396;2022-12-07T15:28:22;18.87;;;7.43;;
70365;SDS011;57787;48.216;12.396;2022-12-07T15:30:49;16.40;;;7.10;;
70365;SDS011;57787;48.216;12.396;2022-12-07T15:33:17;13.48;;;6.93;;
70365;SDS011;57787;48.216;12.396;2022-12-07T15:35:44;13.95;;;6.60;;
70365;SDS011;57787;48.216;12.396;2022-12-07T15:38:12;15.65;;;6.63;;
70365;SDS011;57787;48.216;12.396;2022-12-07T15:40:39;12.30;;;6.47;;
70365;SDS011;57787;48.216;12.396;2022-12-07T15:43:08;13.07;;;6.70;;
70365;SDS011;57787;48.216;12.396;2022-12-07T15:48:22;13.82;;;6.38;;
70365;SDS011;57787;48.216;12.396;2022-12-07T15:51:01;12.95;;;6.85;;
70365;SDS011;57787;48.216;12.396;2022-12-07T15:53:36;13.68;;;6.60;;
70365;SDS011;57787;48.216;12.396;2022-12-07T15:56:06;11.35;;;5.70;;
70365;SDS011;57787;48.216;12.396;2022-12-07T15:58:34;17.38;;;7.15;;
70365;SDS011;57787;48.216;12.396;2022-12-07T16:01:09;15.38;;;7.05;;
70365;SDS011;57787;48.216;12.396;2022-12-07T16:03:37;14.73;;;6.20;;
70365;SDS011;57787;48.216;12.396;2022-12-07T16:06:11;10.48;;;6.72;;
70365;SDS011;57787;48.216;12.396;2022-12-07T16:11:14;16.95;;;8.90;;
70365;SDS011;57787;48.216;12.396;2022-12-07T16:13:41;16.83;;;8.60;;
70365;SDS011;57787;48.216;12.396;2022-12-07T16:16:12;20.77;;;9.18;;
70365;SDS011;57787;48.216;12.396;2022-12-07T16:18:46;30.65;;;13.07;;
70365;SDS011;57787;48.216;12.396;2022-12-07T16:21:14;26.23;;;11.60;;
70365;SDS011;57787;48.216;12.396;2022-12-07T16:23:49;19.77;;;9.32;;
70365;SDS011;57787;48.216;12.396;2022-12-07T16:26:19;22.77;;;9.10;;
70365;SDS011;57787;48.216;12.396;2022-12-07T16:28:53;14.68;;;7.75;;
70365;SDS011;57787;48.216;12.396;2022-12-07T16:31:27;15.10;;;7.95;;
70365;SDS011;57787;48.216;12.396;2022-12-07T16:33:56;16.95;;;8.70;;
70365;SDS011;57787;48.216;12.396;2022-12-07T16:36:24;29.83;;;8.90;;
70365;SDS011;57787;48.216;12.396;2022-12-07T16:39:13;16.13;;;8.38;;
70365;SDS011;57787;48.216;12.396;2022-12-07T16:41:42;16.42;;;8.95;;
70365;SDS011;57787;48.216;12.396;2022-12-07T16:44:11;15.55;;;7.80;;
70365;SDS011;57787;48.216;12.396;2022-12-07T16:46:40;19.83;;;11.07;;
70365;SDS011;57787;48.216;12.396;2022-12-07T16:49:12;24.92;;;12.30;;
70365;SDS011;57787;48.216;12.396;2022-12-07T16:51:40;22.33;;;11.10;;
70365;SDS011;57787;48.216;12.396;2022-12-07T16:54:12;24.02;;;10.85;;
70365;SDS011;57787;48.216;12.396;2022-12-07T16:56:39;18.35;;;10.13;;
70365;SDS011;57787;48.216;12.396;2022-12-07T16:59:06;22.23;;;11.03;;
70365;SDS011;57787;48.216;12.396;2022-12-07T17:01:33;20.33;;;11.07;;
70365;SDS011;57787;48.216;12.396;2022-12-07T17:06:31;24.63;;;12.25;;
70365;SDS011;57787;48.216;12.396;2022-12-07T17:08:59;23.63;;;13.75;;
70365;SDS011;57787;48.216;12.396;2022-12-07T17:11:27;21.55;;;13.15;;
70365;SDS011;57787;48.216;12.396;2022-12-07T17:13:57;31.30;;;15.50;;
70365;SDS011;57787;48.216;12.396;2022-12-07T17:16:42;29.92;;;15.63;;
70365;SDS011;57787;48.216;12.396;2022-12-07T17:19:11;32.13;;;15.68;;
70365;SDS011;57787;48.216;12.396;2022-12-07T17:21:44;35.10;;;18.67;;
70365;SDS011;57787;48.216;12.396;2022-12-07T17:24:13;35.75;;;17.20;;
70365;SDS011;57787;48.216;12.396;2022-12-07T17:26:42;32.78;;;16.40;;
70365;SDS011;57787;48.216;12.396;2022-12-07T17:29:12;29.85;;;15.50;;
70365;SDS011;57787;48.216;12.396;2022-12-07T17:31:40;26.17;;;14.13;;
70365;SDS011;57787;48.216;12.396;2022-12-07T17:34:15;26.17;;;13.75;;
70365;SDS011;57787;48.216;12.396;2022-12-07T17:36:43;22.98;;;13.68;;
70365;SDS011;57787;48.216;12.396;2022-12-07T17:39:13;23.73;;;11.45;;
70365;SDS011;57787;48.216;12.396;2022-12-07T17:41:43;22.50;;;12.63;;